Time;durP1;ratioP1;P1;durP2;ratioP2;P2;SDS_P1;SDS_P2;PMS_P1;PMS_P2;Temp;Humidity;BMP_temperature;BMP_pressure;BME280_temperature;BME280_humidity;BME280_pressure;Samples;Min_cycle;Max_cycle;Signal;HPM_P1;HPM_P2
2023/10/19 00:01:09;;;;;;;17.55;2.28;;;18.30;99.90;;;;;;7395305;19;20303;-79
2023/10/19 00:03:38;;;;;;;18.73;2.40;;;18.40;99.90;;;;;;7400119;19;20097;-79
2023/10/19 00:06:06;;;;;;;20.05;2.80;;;18.40;99.90;;;;;;7398746;19;20007;-79
2023/10/19 00:08:41;;;;;;;14.80;2.42;;;18.40;99.90;;;;;;7397418;19;20018;-80
2023/10/19 00:11:11;;;;;;;15.57;2.30;;;18.40;99.90;;;;;;7422423;19;20006;-79
2023/10/19 00:13:39;;;;;;;21.23;2.40;;;18.40;99.90;;;;;;7399832;19;20050;-79
2023/10/19 00:16:13;;;;;;;25.38;3.08;;;18.50;99.90;;;;;;7399538;19;20088;-79
2023/10/19 00:18:42;;;;;;;19.50;2.22;;;18.50;99.90;;;;;;7401301;19;20015;-80
2023/10/19 00:21:19;;;;;;;12.10;2.33;;;18.50;99.90;;;;;;7401572;19;20272;-80
2023/10/19 00:23:47;;;;;;;14.63;2.65;;;18.50;99.90;;;;;;7400830;19;20014;-79
2023/10/19 00:26:19;;;;;;;21.85;3.38;;;18.50;99.90;;;;;;7421962;19;20010;-79
2023/10/19 00:28:53;;;;;;;14.40;2.55;;;18.50;99.90;;;;;;7397653;19;20019;-79
2023/10/19 00:31:22;;;;;;;8.85;2.35;;;18.50;99.90;;;;;;7396952;19;20012;-79
2023/10/19 00:33:51;;;;;;;20.20;3.25;;;18.50;99.90;;;;;;7400675;19;20028;-78
2023/10/19 00:36:25;;;;;;;26.98;2.75;;;18.50;99.90;;;;;;7399972;19;20019;-79
2023/10/19 00:38:55;;;;;;;23.80;2.60;;;18.40;99.90;;;;;;7399888;19;20016;-78
2023/10/19 00:41:29;;;;;;;22.10;3.50;;;18.40;99.90;;;;;;7419602;19;20015;-78
2023/10/19 00:44:03;;;;;;;24.67;3.63;;;18.50;99.90;;;;;;7397263;19;20003;-78
2023/10/19 00:46:37;;;;;;;26.25;3.42;;;18.30;99.90;;;;;;7396979;19;20212;-78
2023/10/19 00:49:09;;;;;;;27.42;3.80;;;18.40;99.90;;;;;;7396796;19;20010;-79
2023/10/19 00:51:55;;;;;;;24.40;3.50;;;18.50;99.90;;;;;;7396405;19;20006;-78
2023/10/19 00:54:32;;;;;;;24.60;3.38;;;18.40;99.90;;;;;;7403639;19;20010;-79
2023/10/19 00:57:04;;;;;;;29.38;3.25;;;18.40;99.90;;;;;;7400707;19;20015;-78
2023/10/19 00:59:35;;;;;;;25.33;3.65;;;18.50;99.90;;;;;;7396501;19;20019;-78
2023/10/19 01:02:16;;;;;;;25.15;4.10;;;18.40;99.90;;;;;;7417454;19;20006;-78
2023/10/19 01:04:46;;;;;;;29.17;3.55;;;18.20;99.90;;;;;;7395449;19;20039;-78
2023/10/19 01:07:22;;;;;;;32.47;3.83;;;18.20;99.90;;;;;;7394218;19;20017;-78
2023/10/19 01:09:53;;;;;;;32.50;3.88;;;18.30;99.90;;;;;;7391221;19;20358;-79
2023/10/19 01:12:32;;;;;;;28.88;3.80;;;18.30;99.90;;;;;;7389759;19;20011;-79
2023/10/19 01:15:12;;;;;;;31.90;3.55;;;18.40;99.90;;;;;;7394778;19;20365;-79
2023/10/19 01:17:43;;;;;;;21.95;3.38;;;18.40;99.90;;;;;;7395532;19;20015;-79
2023/10/19 01:20:18;;;;;;;29.02;4.00;;;18.40;99.90;;;;;;7418478;19;20003;-80
2023/10/19 01:23:06;;;;;;;37.25;4.32;;;18.50;99.90;;;;;;7397612;19;20030;-78
2023/10/19 01:25:38;;;;;;;24.58;3.67;;;18.50;99.90;;;;;;7397605;19;20030;-80
2023/10/19 01:28:11;;;;;;;34.90;3.95;;;18.50;99.90;;;;;;7393907;19;20444;-78
2023/10/19 01:30:40;;;;;;;18.00;3.20;;;18.50;99.90;;;;;;7394465;19;20002;-79
2023/10/19 01:33:12;;;;;;;35.22;3.78;;;18.60;99.90;;;;;;7395873;19;20039;-79
2023/10/19 01:38:25;;;;;;;31.48;4.30;;;18.60;99.90;;;;;;7415333;19;20006;-79
2023/10/19 01:40:59;;;;;;;34.30;3.83;;;18.60;99.90;;;;;;7396150;19;20027;-79
2023/10/19 01:43:25;;;;;;;27.13;4.20;;;18.60;99.90;;;;;;7395166;19;20490;-79
2023/10/19 01:46:03;;;;;;;30.33;4.20;;;18.60;99.90;;;;;;7394947;19;20014;-79
2023/10/19 01:48:35;;;;;;;27.73;4.30;;;18.60;99.90;;;;;;7407882;19;20011;-78
2023/10/19 01:51:04;;;;;;;28.75;3.17;;;18.60;99.90;;;;;;7408630;19;20014;-78
2023/10/19 01:53:39;;;;;;;25.15;3.78;;;18.60;99.90;;;;;;7409068;19;20017;-77
2023/10/19 01:56:12;;;;;;;42.92;4.00;;;18.60;99.90;;;;;;7428787;19;20087;-77
2023/10/19 01:58:41;;;;;;;35.28;3.92;;;18.60;99.90;;;;;;7408329;19;19999;-79
2023/10/19 02:01:15;;;;;;;26.27;3.47;;;18.60;99.90;;;;;;7394099;19;20408;-80
2023/10/19 02:03:42;;;;;;;30.10;3.42;;;18.60;99.90;;;;;;7392486;19;20089;-79
2023/10/19 02:06:16;;;;;;;28.30;3.70;;;18.60;99.90;;;;;;7393881;19;20030;-79
2023/10/19 02:08:50;;;;;;;25.67;3.47;;;18.60;99.90;;;;;;7391952;19;20031;-79
2023/10/19 02:11:21;;;;;;;32.70;4.05;;;18.60;99.90;;;;;;7413620;19;20010;-79
2023/10/19 02:13:49;;;;;;;25.98;3.90;;;18.60;99.90;;;;;;7391761;19;20286;-79
2023/10/19 02:16:21;;;;;;;23.17;3.50;;;18.60;99.90;;;;;;7392836;19;20006;-79
2023/10/19 02:18:48;;;;;;;26.73;3.60;;;18.60;99.90;;;;;;7392566;19;20007;-79
2023/10/19 02:21:21;;;;;;;31.50;4.50;;;18.60;99.90;;;;;;7393145;19;20224;-79
2023/10/19 02:23:57;;;;;;;26.88;3.75;;;18.60;99.90;;;;;;7392773;19;20083;-78
2023/10/19 02:26:26;;;;;;;33.83;4.03;;;18.60;99.90;;;;;;7417731;19;20005;-81
2023/10/19 02:28:56;;;;;;;23.33;3.35;;;18.50;99.90;;;;;;7392593;19;20013;-80
2023/10/19 02:31:23;;;;;;;31.23;3.55;;;18.60;99.90;;;;;;7392176;19;20003;-80
2023/10/19 02:34:01;;;;;;;29.70;3.45;;;18.60;99.90;;;;;;7393352;19;20017;-80
2023/10/19 02:36:28;;;;;;;23.67;3.33;;;18.50;99.90;;;;;;7394045;19;20011;-80
2023/10/19 02:39:07;;;;;;;33.97;3.78;;;18.50;99.90;;;;;;7391613;19;20034;-80
2023/10/19 02:41:35;;;;;;;34.25;4.40;;;18.50;99.90;;;;;;7392521;19;20011;-80
2023/10/19 02:44:09;;;;;;;30.75;3.47;;;18.50;99.90;;;;;;7411068;19;20006;-80
2023/10/19 02:46:38;;;;;;;18.23;3.10;;;18.50;99.90;;;;;;7392002;19;20015;-79
2023/10/19 02:49:14;;;;;;;26.67;3.85;;;18.50;99.90;;;;;;7390753;19;20003;-78
2023/10/19 02:51:44;;;;;;;33.95;4.25;;;18.50;99.90;;;;;;7391091;19;20010;-79
2023/10/19 02:54:19;;;;;;;27.05;3.55;;;18.40;99.90;;;;;;7389188;19;20007;-79
2023/10/19 02:56:49;;;;;;;33.47;3.75;;;18.40;99.90;;;;;;7392276;19;20027;-79
2023/10/19 02:59:22;;;;;;;27.55;3.85;;;18.40;99.90;;;;;;7412583;19;20006;-79
2023/10/19 03:01:51;;;;;;;30.70;3.88;;;18.40;99.90;;;;;;7389641;19;20007;-79
2023/10/19 03:04:18;;;;;;;21.45;3.80;;;18.40;99.90;;;;;;7390135;19;20051;-79
2023/10/19 03:06:47;;;;;;;27.05;3.30;;;18.40;99.90;;;;;;7392608;19;20015;-79
2023/10/19 03:09:22;;;;;;;36.95;3.97;;;18.40;99.90;;;;;;7392807;19;20066;-79
2023/10/19 03:11:54;;;;;;;34.75;3.78;;;18.50;99.90;;;;;;7394267;19;20094;-80
2023/10/19 03:14:24;;;;;;;27.10;3.58;;;18.50;99.90;;;;;;7413328;19;20093;-79
2023/10/19 03:16:54;;;;;;;19.40;3.40;;;18.50;99.90;;;;;;7392129;19;20007;-79
2023/10/19 03:19:20;;;;;;;34.05;4.05;;;18.50;99.90;;;;;;7393612;19;20014;-79
2023/10/19 03:21:54;;;;;;;28.00;4.10;;;18.50;99.90;;;;;;7394006;19;20013;-80
2023/10/19 03:24:35;;;;;;;25.38;3.72;;;18.50;99.90;;;;;;7391493;19;20007;-80
2023/10/19 03:27:08;;;;;;;30.77;4.10;;;18.50;99.90;;;;;;7389887;19;20050;-79
2023/10/19 03:29:38;;;;;;;30.15;3.88;;;18.50;99.90;;;;;;7390798;19;20015;-80
2023/10/19 03:32:09;;;;;;;22.30;2.95;;;18.50;99.90;;;;;;7411679;19;20007;-80
2023/10/19 03:34:38;;;;;;;21.00;3.47;;;18.50;99.90;;;;;;7391954;19;20113;-80
2023/10/19 03:37:12;;;;;;;26.25;3.47;;;18.50;99.90;;;;;;7397812;19;20014;-81
2023/10/19 03:39:46;;;;;;;28.92;3.75;;;18.50;99.90;;;;;;7392035;19;20009;-80
2023/10/19 03:42:16;;;;;;;24.33;3.13;;;18.40;99.90;;;;;;7388175;19;20007;-81
2023/10/19 03:44:53;;;;;;;31.38;3.95;;;18.40;99.90;;;;;;7391340;19;20014;-80
2023/10/19 03:47:25;;;;;;;27.30;3.40;;;18.40;99.90;;;;;;7412812;19;20027;-81
2023/10/19 03:49:56;;;;;;;27.95;3.50;;;18.40;99.90;;;;;;7387581;19;20024;-81
2023/10/19 03:52:30;;;;;;;31.30;3.88;;;18.40;99.90;;;;;;7386837;19;19999;-81
2023/10/19 03:55:05;;;;;;;29.25;3.55;;;18.50;99.90;;;;;;7385705;19;20009;-81
2023/10/19 03:57:41;;;;;;;38.83;4.07;;;18.40;99.90;;;;;;7385268;19;20007;-81
2023/10/19 04:00:18;;;;;;;30.85;3.35;;;18.40;99.90;;;;;;7391169;19;20018;-81
2023/10/19 04:02:47;;;;;;;23.90;3.50;;;18.40;99.90;;;;;;7391074;19;20002;-81
2023/10/19 04:05:20;;;;;;;25.30;3.55;;;18.50;99.90;;;;;;7414852;19;20350;-81
2023/10/19 04:07:54;;;;;;;34.53;3.78;;;18.50;99.90;;;;;;7388959;19;20271;-81
2023/10/19 04:10:38;;;;;;;27.58;3.35;;;18.40;99.90;;;;;;7387584;19;20228;-80
2023/10/19 04:13:09;;;;;;;33.92;4.07;;;18.40;99.90;;;;;;7388006;19;20003;-80
2023/10/19 04:15:38;;;;;;;24.50;3.47;;;18.50;99.90;;;;;;7388245;19;20013;-78
2023/10/19 04:18:11;;;;;;;24.70;3.65;;;18.50;99.90;;;;;;7382360;19;20249;-77
2023/10/19 04:20:58;;;;;;;21.80;3.47;;;18.50;99.90;;;;;;7391432;19;20010;-78
2023/10/19 04:23:34;;;;;;;21.48;3.20;;;18.50;99.90;;;;;;7414354;19;20252;-79
2023/10/19 04:26:10;;;;;;;23.17;3.60;;;18.40;99.90;;;;;;7389681;19;20032;-78
2023/10/19 04:28:49;;;;;;;31.27;3.22;;;18.40;99.90;;;;;;7387869;19;20031;-79
2023/10/19 04:31:19;;;;;;;26.35;3.45;;;18.50;99.90;;;;;;7386042;19;20003;-79
2023/10/19 04:33:49;;;;;;;29.65;3.72;;;18.50;99.90;;;;;;7387631;19;20007;-78
2023/10/19 04:36:21;;;;;;;18.13;3.05;;;18.50;99.90;;;;;;7388112;19;20068;-78
2023/10/19 04:38:52;;;;;;;22.42;3.20;;;18.40;99.90;;;;;;7388740;19;20047;-78
2023/10/19 04:41:23;;;;;;;19.67;3.92;;;18.40;99.90;;;;;;7408467;19;20054;-78
2023/10/19 04:43:52;;;;;;;;;;;18.50;99.90;;;;;;7389045;19;20359;-78
2023/10/19 04:46:22;;;;;;;17.35;3.17;;;18.40;99.90;;;;;;7388499;19;19963;-79
2023/10/19 04:48:51;;;;;;;24.20;3.72;;;18.40;99.90;;;;;;7395150;19;20070;-79
2023/10/19 04:51:20;;;;;;;39.45;4.10;;;18.40;99.90;;;;;;7392646;19;20108;-78
2023/10/19 04:53:50;;;;;;;32.60;3.80;;;18.40;99.90;;;;;;7391918;19;20011;-78
2023/10/19 04:56:19;;;;;;;34.90;4.40;;;18.40;99.90;;;;;;7417415;19;20024;-79
2023/10/19 04:58:51;;;;;;;29.80;3.60;;;18.40;99.90;;;;;;7392979;19;20007;-78
2023/10/19 05:01:19;;;;;;;30.77;4.18;;;18.30;99.90;;;;;;7395291;19;20719;-79
2023/10/19 05:03:48;;;;;;;20.98;3.38;;;18.40;99.90;;;;;;7396663;19;20030;-79
2023/10/19 05:06:18;;;;;;;32.22;4.32;;;18.40;99.90;;;;;;7395683;19;20002;-79
2023/10/19 05:08:49;;;;;;;35.00;3.72;;;18.30;99.90;;;;;;7396851;19;20011;-79
2023/10/19 05:11:18;;;;;;;13.10;3.25;;;18.30;99.90;;;;;;7419775;19;20003;-79
2023/10/19 05:13:49;;;;;;;23.40;3.58;;;18.30;99.90;;;;;;7395530;19;20010;-79
2023/10/19 05:16:20;;;;;;;;;;;18.30;99.90;;;;;;7397990;19;20017;-80
2023/10/19 05:18:52;;;;;;;24.42;3.70;;;18.30;99.90;;;;;;7395331;19;19935;-79
2023/10/19 05:21:21;;;;;;;;;;;18.40;99.90;;;;;;7393921;19;20006;-80
2023/10/19 05:23:52;;;;;;;39.47;6.55;;;18.40;99.90;;;;;;7396017;19;19932;-80
2023/10/19 05:26:21;;;;;;;;;;;18.40;99.90;;;;;;7419681;19;20010;-79
2023/10/19 05:28:54;;;;;;;17.58;4.07;;;18.40;99.90;;;;;;7394728;19;19914;-80
2023/10/19 05:31:27;;;;;;;29.38;4.18;;;18.40;99.90;;;;;;7393523;19;20015;-79
2023/10/19 05:33:56;;;;;;;22.00;3.40;;;18.40;99.90;;;;;;7395050;19;19999;-79
2023/10/19 05:36:25;;;;;;;18.70;4.00;;;18.40;99.90;;;;;;7394290;19;20059;-80
2023/10/19 05:38:58;;;;;;;24.48;3.90;;;18.30;99.90;;;;;;7393345;19;20010;-80
2023/10/19 05:41:28;;;;;;;18.15;3.40;;;18.30;99.90;;;;;;7417653;19;20007;-80
2023/10/19 05:43:57;;;;;;;30.98;3.75;;;18.40;99.90;;;;;;7395078;19;20002;-80
2023/10/19 05:46:28;;;;;;;20.60;3.83;;;18.30;99.90;;;;;;7392117;19;20367;-79
2023/10/19 05:49:03;;;;;;;18.10;3.00;;;18.30;99.90;;;;;;7394134;19;20007;-79
2023/10/19 05:51:32;;;;;;;24.17;3.55;;;18.30;99.90;;;;;;7396169;19;20013;-79
2023/10/19 05:54:04;;;;;;;18.83;3.58;;;18.30;99.90;;;;;;7395333;19;20047;-79
2023/10/19 05:56:36;;;;;;;20.23;3.33;;;18.40;99.90;;;;;;7396351;19;20078;-79
2023/10/19 05:59:06;;;;;;;27.42;3.80;;;18.40;99.90;;;;;;7414979;19;20006;-79
2023/10/19 06:01:37;;;;;;;22.40;3.58;;;18.40;99.90;;;;;;7392814;19;20165;-80
2023/10/19 06:04:07;;;;;;;25.17;3.60;;;18.40;99.90;;;;;;7390927;19;20006;-79
2023/10/19 06:06:36;;;;;;;27.83;3.47;;;18.40;99.90;;;;;;7388867;19;20006;-79
2023/10/19 06:09:04;;;;;;;24.50;3.78;;;18.40;99.90;;;;;;7392181;19;20014;-80
2023/10/19 06:11:37;;;;;;;32.72;3.85;;;18.40;99.90;;;;;;7396981;19;20014;-79
2023/10/19 06:14:06;;;;;;;13.07;2.95;;;18.30;99.90;;;;;;7418251;19;20028;-80
2023/10/19 06:16:38;;;;;;;14.88;3.30;;;18.40;99.90;;;;;;7394327;19;20011;-80
2023/10/19 06:19:07;;;;;;;24.42;4.05;;;18.40;99.90;;;;;;7401851;19;20347;-80
2023/10/19 06:21:36;;;;;;;22.60;3.47;;;18.40;99.90;;;;;;7399794;19;20007;-80
2023/10/19 06:24:06;;;;;;;18.75;3.95;;;18.40;99.90;;;;;;7391752;19;20044;-79
2023/10/19 06:26:35;;;;;;;21.45;4.13;;;18.40;99.90;;;;;;7388612;19;20011;-80
2023/10/19 06:29:04;;;;;;;18.33;4.28;;;18.40;99.90;;;;;;7411629;19;20108;-80
2023/10/19 06:31:33;;;;;;;23.42;4.63;;;18.40;99.90;;;;;;7390632;19;20014;-79
2023/10/19 06:34:06;;;;;;;30.15;4.47;;;18.40;99.90;;;;;;7392404;19;20006;-80
2023/10/19 06:36:34;;;;;;;28.38;4.03;;;18.40;99.90;;;;;;7391737;19;20003;-80
2023/10/19 06:39:05;;;;;;;21.20;4.35;;;18.40;99.90;;;;;;7389713;19;20087;-77
2023/10/19 06:41:35;;;;;;;16.55;3.90;;;18.40;99.90;;;;;;7390165;19;20002;-77
2023/10/19 06:44:03;;;;;;;23.45;5.07;;;18.40;99.90;;;;;;7412840;19;20014;-80
2023/10/19 06:46:32;;;;;;;35.08;4.53;;;18.40;99.90;;;;;;7393273;19;20013;-79
2023/10/19 06:49:03;;;;;;;17.63;4.05;;;18.40;99.90;;;;;;7389485;19;20007;-77
2023/10/19 07:10:51;;;;;;;26.37;4.03;;;18.40;99.90;;;;;;7382541;19;20252;-79
2023/10/19 07:13:24;;;;;;;15.07;4.00;;;18.40;99.90;;;;;;7384078;19;20244;-79
2023/10/19 07:15:58;;;;;;;21.05;3.95;;;18.40;99.90;;;;;;7380717;19;20015;-79
2023/10/19 07:21:43;;;;;;;15.98;3.22;;;18.50;99.90;;;;;;7405087;19;20014;-85
2023/10/19 07:59:21;;;;;;;15.23;3.60;;;18.70;99.90;;;;;;7395688;19;20019;-86
2023/10/19 08:01:50;;;;;;;11.40;3.05;;;18.70;99.90;;;;;;7387457;19;20003;-78
2023/10/19 08:13:16;;;;;;;23.55;2.70;;;18.70;99.90;;;;;;7370923;19;20364;-81
2023/10/19 08:16:27;;;;;;;14.50;3.28;;;18.80;99.90;;;;;;7390069;19;20006;-83
2023/10/19 08:28:09;;;;;;;10.07;2.63;;;18.90;99.90;;;;;;7348574;19;20251;-83
2023/10/19 08:30:56;;;;;;;14.20;2.42;;;18.90;99.90;;;;;;7393410;19;20007;-81
2023/10/19 08:39:50;;;;;;;6.95;1.90;;;19.10;99.90;;;;;;7413335;19;20000;-82
2023/10/19 08:42:21;;;;;;;11.90;2.35;;;19.10;99.90;;;;;;7387980;19;20011;-82
2023/10/19 08:44:51;;;;;;;10.40;2.20;;;19.10;99.90;;;;;;7391997;19;21200;-82
2023/10/19 08:53:11;;;;;;;11.75;1.90;;;19.20;99.90;;;;;;7396682;19;20344;-83
2023/10/19 09:02:33;;;;;;;6.60;2.00;;;19.30;99.60;;;;;;7401104;19;20259;-84
2023/10/19 09:05:19;;;;;;;7.93;1.75;;;19.20;99.50;;;;;;7416552;19;20037;-81
2023/10/19 09:14:45;;;;;;;;;;;;;;;;;;;;;
2023/10/19 09:17:17;;;;;;;9.93;1.95;;;19.40;99.30;;;;;;7402150;19;20006;-76
2023/10/19 09:19:47;;;;;;;16.23;2.05;;;19.40;99.30;;;;;;7384385;19;20007;-77
2023/10/19 09:22:22;;;;;;;12.85;1.67;;;19.40;99.30;;;;;;7384976;19;20007;-77
2023/10/19 09:24:53;;;;;;;3.15;1.25;;;19.50;99.40;;;;;;7385826;19;20383;-78
2023/10/19 09:27:22;;;;;;;7.25;1.98;;;19.50;99.20;;;;;;7386041;19;20232;-76
2023/10/19 09:29:52;;;;;;;5.18;1.60;;;19.50;99.00;;;;;;7385207;19;20013;-76
2023/10/19 09:32:24;;;;;;;13.55;1.60;;;19.60;98.90;;;;;;7401927;19;20323;-77
2023/10/19 09:34:55;;;;;;;14.82;1.80;;;19.60;98.70;;;;;;7380112;19;20016;-76
2023/10/19 09:37:26;;;;;;;6.57;1.80;;;19.60;98.70;;;;;;7382989;19;19999;-77
2023/10/19 09:39:56;;;;;;;6.77;1.80;;;19.60;98.70;;;;;;7382977;19;20220;-77
2023/10/19 09:42:30;;;;;;;14.18;2.15;;;19.60;98.70;;;;;;7382801;19;20003;-76
2023/10/19 09:45:05;;;;;;;7.63;1.75;;;19.50;98.80;;;;;;7382556;19;20011;-76
2023/10/19 09:47:40;;;;;;;8.60;1.83;;;19.50;99.00;;;;;;7382532;19;20326;-76
2023/10/19 09:50:11;;;;;;;8.50;1.50;;;19.30;99.00;;;;;;7402985;19;20006;-76
2023/10/19 09:52:41;;;;;;;6.32;1.52;;;19.30;99.30;;;;;;7380204;19;20038;-76
2023/10/19 09:55:15;;;;;;;5.83;1.60;;;19.20;99.30;;;;;;7384387;19;20003;-77
2023/10/19 09:57:51;;;;;;;5.93;1.95;;;19.30;99.30;;;;;;7385378;19;20068;-77
2023/10/19 10:00:23;;;;;;;10.18;1.73;;;19.40;99.30;;;;;;7387698;19;20024;-75
2023/10/19 10:02:55;;;;;;;11.05;2.08;;;19.40;99.40;;;;;;7380276;19;20025;-76
2023/10/19 10:05:48;;;;;;;7.20;2.05;;;19.40;99.40;;;;;;7403286;19;20006;-76
2023/10/19 10:08:35;;;;;;;6.88;1.80;;;19.50;99.40;;;;;;7388598;19;20011;-77
2023/10/19 10:11:24;;;;;;;11.48;1.75;;;19.50;99.00;;;;;;7377055;19;20246;-76
2023/10/19 10:13:53;;;;;;;7.07;1.30;;;19.70;99.00;;;;;;7376787;19;20022;-75
2023/10/19 10:16:51;;;;;;;4.40;1.90;;;19.70;98.90;;;;;;7380987;19;20011;-75
2023/10/19 10:19:30;;;;;;;9.60;1.98;;;19.70;99.30;;;;;;7386136;19;20017;-78
2023/10/19 10:22:24;;;;;;;7.00;1.67;;;19.70;98.90;;;;;;7388865;19;20011;-80
2023/10/19 10:24:58;;;;;;;6.43;1.42;;;19.70;99.10;;;;;;7385818;19;20006;-79
2023/10/19 10:27:33;;;;;;;4.03;1.23;;;19.70;98.90;;;;;;7384923;19;20007;-79
2023/10/19 10:30:10;;;;;;;4.68;1.50;;;19.70;98.80;;;;;;7382947;19;20010;-78
2023/10/19 10:40:00;;;;;;;8.43;1.70;;;19.60;98.60;;;;;;7407402;19;19994;-84
2023/10/19 10:42:31;;;;;;;15.50;1.55;;;19.70;98.70;;;;;;7382735;19;20013;-79
2023/10/19 10:45:10;;;;;;;4.70;1.58;;;19.80;98.60;;;;;;7381452;19;20038;-80
2023/10/19 10:47:48;;;;;;;8.05;1.40;;;19.80;98.50;;;;;;7378487;19;20228;-80
2023/10/19 11:05:56;;;;;;;11.48;2.03;;;19.70;98.50;;;;;;7389059;19;19971;-80
2023/10/19 11:08:28;;;;;;;8.95;1.60;;;19.80;98.10;;;;;;7407286;19;20020;-84
2023/10/19 11:14:12;;;;;;;11.23;2.08;;;20.00;97.80;;;;;;7408466;19;20008;-80
2023/10/19 11:16:43;;;;;;;11.55;2.13;;;20.10;97.90;;;;;;7384880;19;20072;-79
2023/10/19 11:19:12;;;;;;;6.80;1.85;;;20.10;97.60;;;;;;7385908;19;19998;-78
2023/10/19 11:21:55;;;;;;;7.13;1.77;;;20.20;97.70;;;;;;7387145;19;20003;-79
2023/10/19 11:24:37;;;;;;;7.15;1.50;;;20.20;97.60;;;;;;7385374;19;20031;-78
2023/10/19 11:27:07;;;;;;;12.18;2.05;;;20.20;96.90;;;;;;7385571;19;20011;-78
2023/10/19 11:29:36;;;;;;;8.20;1.97;;;20.20;96.40;;;;;;7381196;19;20011;-79
2023/10/19 11:32:05;;;;;;;9.52;1.83;;;20.30;96.50;;;;;;7403087;19;20268;-79
2023/10/19 11:34:34;;;;;;;14.43;1.88;;;20.40;96.20;;;;;;7382405;19;20377;-81
2023/10/19 11:37:06;;;;;;;6.72;1.55;;;20.60;96.10;;;;;;7382159;19;20357;-79
2023/10/19 11:39:37;;;;;;;8.93;1.70;;;20.60;95.70;;;;;;7383683;19;20013;-82
2023/10/19 11:42:18;;;;;;;;;;;20.60;94.90;;;;;;7385189;19;20007;-81
2023/10/19 11:44:47;;;;;;;6.68;2.15;;;20.60;94.80;;;;;;7399066;19;19910;-78
2023/10/19 11:47:20;;;;;;;6.35;1.50;;;20.60;94.90;;;;;;7410207;19;20010;-83
2023/10/19 11:49:50;;;;;;;12.18;1.80;;;20.70;94.80;;;;;;7381650;19;20043;-79
2023/10/19 11:52:39;;;;;;;6.70;1.50;;;20.80;94.90;;;;;;7380268;19;20012;-78
2023/10/19 11:55:08;;;;;;;8.05;1.70;;;20.80;94.80;;;;;;7378555;19;20015;-77
2023/10/19 11:57:37;;;;;;;8.68;1.95;;;20.90;95.00;;;;;;7377710;19;20023;-78
2023/10/19 12:00:08;;;;;;;6.05;1.75;;;21.00;94.90;;;;;;7381577;19;20010;-79
2023/10/19 12:02:40;;;;;;;6.75;1.40;;;20.90;94.40;;;;;;7380047;19;20006;-78
2023/10/19 12:11:15;;;;;;;9.87;1.80;;;21.10;94.40;;;;;;7400527;19;20063;-80
2023/10/19 12:13:44;;;;;;;5.63;1.25;;;21.00;93.80;;;;;;7376170;19;20034;-77
2023/10/19 12:16:13;;;;;;;5.75;1.38;;;21.10;93.90;;;;;;7377266;19;20007;-76
2023/10/19 12:18:42;;;;;;;9.73;1.60;;;21.10;93.50;;;;;;7378172;19;20351;-76
2023/10/19 12:21:11;;;;;;;8.27;1.58;;;21.20;93.80;;;;;;7375903;19;20014;-76
2023/10/19 12:23:51;;;;;;;6.57;1.52;;;21.30;93.60;;;;;;7378339;19;20021;-76
2023/10/19 12:26:19;;;;;;;12.77;2.13;;;21.40;93.50;;;;;;7399035;19;20007;-75
2023/10/19 12:28:49;;;;;;;5.22;1.50;;;21.40;93.00;;;;;;7377480;19;20003;-76
2023/10/19 12:31:19;;;;;;;9.55;1.50;;;21.40;92.50;;;;;;7375941;19;20003;-76
2023/10/19 12:33:47;;;;;;;7.30;1.35;;;21.50;92.90;;;;;;7378344;19;19999;-76
2023/10/19 12:36:31;;;;;;;4.40;1.40;;;21.60;93.00;;;;;;7377870;19;20006;-77
2023/10/19 12:39:04;;;;;;;7.93;1.55;;;21.70;92.90;;;;;;7375766;19;20006;-77
2023/10/19 12:41:34;;;;;;;7.72;1.77;;;21.80;92.50;;;;;;7376327;19;20064;-76
2023/10/19 12:44:08;;;;;;;5.03;1.50;;;21.80;92.50;;;;;;7398316;19;20010;-76
2023/10/19 12:46:36;;;;;;;7.30;1.80;;;21.80;92.80;;;;;;7376544;19;20069;-76
2023/10/19 12:49:08;;;;;;;9.60;1.40;;;21.80;92.60;;;;;;7376080;19;20010;-76
2023/10/19 12:51:38;;;;;;;3.35;1.55;;;22.00;92.70;;;;;;7377273;19;20007;-76
2023/10/19 12:54:10;;;;;;;9.05;1.50;;;22.10;92.30;;;;;;7376605;19;20010;-76
2023/10/19 12:56:39;;;;;;;6.72;1.48;;;22.10;92.00;;;;;;7376172;19;20358;-76
2023/10/19 12:59:08;;;;;;;7.90;1.92;;;22.20;91.80;;;;;;7399148;19;20011;-76
2023/10/19 13:01:37;;;;;;;6.32;1.65;;;22.10;91.80;;;;;;7374866;19;20342;-76
2023/10/19 13:04:13;;;;;;;13.73;1.92;;;22.00;91.80;;;;;;7375553;19;20269;-76
2023/10/19 13:06:42;;;;;;;9.48;1.70;;;22.00;92.00;;;;;;7379424;19;20002;-77
2023/10/19 13:09:53;;;;;;;9.35;1.63;;;22.00;91.80;;;;;;7403358;19;20030;-87
2023/10/19 13:12:29;;;;;;;12.52;1.85;;;21.90;92.00;;;;;;7384114;19;20010;-78
2023/10/19 13:15:00;;;;;;;9.35;1.52;;;21.80;92.20;;;;;;7389221;19;20026;-79
2023/10/19 13:33:54;;;;;;;8.52;1.95;;;22.00;92.10;;;;;;7415407;19;20043;-81
2023/10/19 13:50:05;;;;;;;9.98;2.08;;;21.80;91.40;;;;;;7405950;19;20039;-79
2023/10/19 13:52:34;;;;;;;18.30;3.13;;;21.80;91.50;;;;;;7383712;19;20002;-80
2023/10/19 14:14:10;;;;;;;5.45;1.70;;;22.10;91.60;;;;;;7389046;19;20045;-80
2023/10/19 14:16:39;;;;;;;6.47;1.70;;;22.10;91.00;;;;;;7385568;19;20013;-79
2023/10/19 14:19:08;;;;;;;6.93;1.92;;;22.10;91.00;;;;;;7383909;19;20062;-80
2023/10/19 14:21:40;;;;;;;8.60;1.75;;;22.00;91.00;;;;;;7383008;19;19999;-79
2023/10/19 14:24:10;;;;;;;2.72;1.27;;;21.90;91.20;;;;;;7389702;19;20286;-81
2023/10/19 14:26:40;;;;;;;7.38;1.73;;;21.90;91.30;;;;;;7390362;19;20252;-81
2023/10/19 14:29:13;;;;;;;6.88;2.33;;;21.90;91.40;;;;;;7407531;19;20017;-80
2023/10/19 14:31:44;;;;;;;11.50;2.22;;;21.90;91.60;;;;;;7383372;19;20007;-80
2023/10/19 14:34:12;;;;;;;3.72;1.40;;;21.80;91.70;;;;;;7382812;19;20003;-79
2023/10/19 14:36:41;;;;;;;9.27;2.58;;;21.80;91.70;;;;;;7381883;19;20013;-77
2023/10/19 14:39:13;;;;;;;9.30;2.17;;;21.80;91.70;;;;;;7381419;19;20003;-78
2023/10/19 14:41:42;;;;;;;5.57;2.00;;;21.80;91.60;;;;;;7383094;19;20361;-78
2023/10/19 14:44:14;;;;;;;13.77;1.98;;;21.80;91.50;;;;;;7401957;19;20070;-78
2023/10/19 14:46:42;;;;;;;15.40;2.25;;;21.80;91.70;;;;;;7382412;19;20423;-78
2023/10/19 14:49:11;;;;;;;12.32;2.28;;;21.70;91.40;;;;;;7381262;19;20011;-77
2023/10/19 14:51:41;;;;;;;5.28;2.40;;;21.70;91.50;;;;;;7379441;19;19999;-77
2023/10/19 14:54:11;;;;;;;10.32;2.50;;;21.70;91.60;;;;;;7382633;19;20007;-77
2023/10/19 14:56:39;;;;;;;6.20;2.17;;;21.70;91.70;;;;;;7386671;19;20030;-79
2023/10/19 14:59:08;;;;;;;7.03;2.10;;;21.60;91.90;;;;;;7403516;19;20428;-78
2023/10/19 15:01:39;;;;;;;10.98;2.70;;;21.70;92.00;;;;;;7381148;19;20019;-78
2023/10/19 15:04:08;;;;;;;;;;;21.70;92.10;;;;;;7382710;19;20229;-78
2023/10/19 15:06:37;;;;;;;6.25;2.10;;;21.70;92.10;;;;;;7380593;19;20226;-79
2023/10/19 15:09:06;;;;;;;8.00;2.42;;;21.70;92.00;;;;;;7383914;19;20565;-78
2023/10/19 15:11:34;;;;;;;6.50;1.80;;;21.70;92.10;;;;;;7380580;19;20017;-78
2023/10/19 15:14:03;;;;;;;6.72;1.75;;;21.70;92.00;;;;;;7402352;19;20018;-80
2023/10/19 15:16:34;;;;;;;7.72;1.75;;;21.70;92.10;;;;;;7383563;19;20031;-81
2023/10/19 15:19:05;;;;;;;11.10;2.17;;;21.80;92.10;;;;;;7383158;19;20350;-78
2023/10/19 15:21:34;;;;;;;6.97;2.00;;;21.80;92.00;;;;;;7382830;19;20010;-78
2023/10/19 15:24:05;;;;;;;5.85;2.08;;;21.80;92.10;;;;;;7383097;19;20010;-77
2023/10/19 15:26:40;;;;;;;5.82;1.30;;;21.90;92.20;;;;;;7383047;19;20010;-80
2023/10/19 15:29:12;;;;;;;12.07;2.20;;;21.80;92.20;;;;;;7402015;19;20014;-79
2023/10/19 15:34:54;;;;;;;4.05;1.95;;;21.80;92.40;;;;;;7400837;19;20449;-77
2023/10/19 15:37:23;;;;;;;;;;;21.80;92.30;;;;;;7377776;19;20023;-77
2023/10/19 15:39:52;;;;;;;6.32;2.00;;;21.70;92.30;;;;;;7378316;19;19907;-78
2023/10/19 15:42:21;;;;;;;10.85;2.03;;;21.70;92.20;;;;;;7379034;19;20437;-79
2023/10/19 15:44:50;;;;;;;8.15;1.50;;;21.60;92.20;;;;;;7379334;19;20023;-77
2023/10/19 15:47:23;;;;;;;3.92;1.73;;;21.60;92.30;;;;;;7400973;19;19999;-80
2023/10/19 15:49:58;;;;;;;5.32;2.20;;;21.60;92.30;;;;;;7381605;19;20017;-80
2023/10/19 15:52:40;;;;;;;11.60;1.58;;;21.50;92.10;;;;;;7384022;19;20017;-82
2023/10/19 15:55:40;;;;;;;11.07;1.60;;;21.40;92.10;;;;;;7382175;19;20092;-85
2023/10/19 16:04:20;;;;;;;5.80;1.45;;;21.40;92.20;;;;;;7363632;19;19918;-80
2023/10/19 16:06:52;;;;;;;8.57;1.95;;;21.30;92.20;;;;;;7402908;19;20011;-80
2023/10/19 16:09:21;;;;;;;6.35;1.65;;;21.30;92.40;;;;;;7381460;19;20003;-80
2023/10/19 16:11:53;;;;;;;5.85;1.92;;;21.30;92.50;;;;;;7379549;19;20023;-80
2023/10/19 16:27:18;;;;;;;7.60;2.30;;;21.10;93.20;;;;;;7447704;19;20014;-84
2023/10/19 16:29:47;;;;;;;4.20;1.90;;;21.00;93.30;;;;;;7418228;19;20015;-78
2023/10/19 16:32:26;;;;;;;;;;;;;;;;;;;;;
2023/10/19 16:35:05;;;;;;;;;;;;;;;;;;;;;
2023/10/19 16:37:34;;;;;;;5.07;1.80;;;21.00;93.70;;;;;;7416745;19;20263;-78
2023/10/19 16:40:34;;;;;;;;;;;;;;;;;;;;;